createdAt,value
2017-05-05T00:00:55.915Z,100743.16
2017-05-05T00:03:26.712Z,100743.11
2017-05-05T00:05:57.559Z,100741.06
2017-05-05T00:08:28.438Z,100739.09
2017-05-05T00:10:59.253Z,100740.40
2017-05-05T00:13:30.170Z,100743.84
2017-05-05T00:16:00.977Z,100734.78
2017-05-05T00:18:31.847Z,100743.33
2017-05-05T00:21:02.740Z,100742.91
2017-05-05T00:23:33.630Z,100741.95
2017-05-05T00:26:05.335Z,100746.57
2017-05-05T00:28:36.248Z,100743.11
2017-05-05T00:31:07.044Z,100737.02
2017-05-05T00:33:37.940Z,100742.64
2017-05-05T00:36:08.775Z,100738.44
2017-05-05T00:38:39.711Z,100735.67
2017-05-05T00:41:10.591Z,100736.43
2017-05-05T00:43:41.438Z,100736.52
2017-05-05T00:46:12.312Z,100739.14
2017-05-05T00:48:43.110Z,100735.16
2017-05-05T00:51:14.031Z,100733.31
2017-05-05T00:53:44.817Z,100731.64
2017-05-05T00:56:19.898Z,100727.89
2017-05-05T00:58:50.685Z,100730.59
2017-05-05T01:01:22.548Z,100737.55
2017-05-05T01:03:53.386Z,100726.00
2017-05-05T01:06:24.860Z,100727.08
2017-05-05T01:08:55.677Z,100722.19
2017-05-05T01:11:26.526Z,100733.97
2017-05-05T01:13:58.216Z,100735.07
2017-05-05T01:16:29.094Z,100730.22
2017-05-05T01:18:59.864Z,100730.45
2017-05-05T01:21:30.720Z,100736.54
2017-05-05T01:24:01.642Z,100743.23
2017-05-05T01:26:32.515Z,100744.95
2017-05-05T01:29:03.331Z,100744.61
2017-05-05T01:31:34.207Z,100750.83
2017-05-05T01:34:04.996Z,100752.91
2017-05-05T01:36:35.992Z,100752.19
2017-05-05T01:39:06.808Z,100750.61
2017-05-05T01:41:37.738Z,100753.27
2017-05-05T01:44:09.408Z,100749.33
2017-05-05T01:46:40.527Z,100745.49
2017-05-05T01:49:11.351Z,100747.51
2017-05-05T01:51:42.209Z,100746.91
2017-05-05T01:54:12.992Z,100745.81
2017-05-05T01:56:44.144Z,100752.45
2017-05-05T01:59:15.053Z,100745.95
2017-05-05T02:01:45.930Z,100749.02
2017-05-05T02:04:16.745Z,100750.44
2017-05-05T02:06:47.606Z,100750.31
2017-05-05T02:09:18.422Z,100750.45
2017-05-05T02:11:49.315Z,100750.80
2017-05-05T02:14:20.252Z,100753.83
2017-05-05T02:16:51.128Z,100748.52
2017-05-05T02:19:22.972Z,100747.91
2017-05-05T02:21:53.789Z,100746.17
2017-05-05T02:24:24.762Z,100751.09
2017-05-05T02:26:55.574Z,100755.07
2017-05-05T02:29:26.418Z,100758.97
2017-05-05T02:31:57.271Z,100758.45
2017-05-05T02:34:28.098Z,100764.55
2017-05-05T02:36:58.994Z,100762.80
2017-05-05T02:39:29.857Z,100764.88
2017-05-05T02:42:00.808Z,100769.91
2017-05-05T02:44:31.609Z,100769.12
2017-05-05T02:47:02.550Z,100760.81
2017-05-05T02:49:33.370Z,100761.80
2017-05-05T02:52:04.455Z,100757.48
2017-05-05T02:54:35.265Z,100760.07
2017-05-05T02:57:06.242Z,100765.19
2017-05-05T02:59:37.059Z,100763.66
2017-05-05T03:02:07.936Z,100755.23
2017-05-05T03:04:38.754Z,100759.66
2017-05-05T03:07:09.626Z,100761.30
2017-05-05T03:09:40.482Z,100749.14
2017-05-05T03:12:11.391Z,100752.09
2017-05-05T03:14:42.186Z,100753.83
2017-05-05T03:17:13.069Z,100757.45
2017-05-05T03:19:43.925Z,100753.18
2017-05-05T03:22:14.808Z,100761.05
2017-05-05T03:24:47.360Z,100756.25
2017-05-05T03:27:22.152Z,100757.14
2017-05-05T03:29:54.522Z,100755.83
2017-05-05T03:32:27.123Z,100756.21
2017-05-05T03:34:57.953Z,100753.01
2017-05-05T03:37:29.964Z,100750.31
2017-05-05T03:40:02.834Z,100755.67
2017-05-05T03:42:36.337Z,100757.62
2017-05-05T03:45:10.914Z,100766.52
2017-05-05T03:49:05.737Z,100768.36
2017-05-05T03:51:38.850Z,100770.10
2017-05-05T03:54:10.920Z,100772.25
2017-05-05T03:56:41.717Z,100774.48
2017-05-05T03:59:12.605Z,100774.02
2017-05-05T04:01:43.439Z,100770.86
2017-05-05T04:04:14.655Z,100769.98
2017-05-05T04:06:46.561Z,100770.84
2017-05-05T04:09:17.442Z,100770.28
2017-05-05T04:11:48.254Z,100773.78
2017-05-05T04:14:19.132Z,100766.80
2017-05-05T04:16:50.084Z,100767.93
2017-05-05T04:19:20.976Z,100766.59
2017-05-05T04:21:52.435Z,100772.39
2017-05-05T04:24:23.876Z,100768.38
2017-05-05T04:26:54.688Z,100771.84
2017-05-05T04:29:25.603Z,100775.09
2017-05-05T04:31:56.458Z,100783.08
2017-05-05T04:34:27.339Z,100786.80
2017-05-05T04:36:58.119Z,100784.09
2017-05-05T04:39:29.003Z,100793.70
2017-05-05T04:41:59.814Z,100782.64
2017-05-05T04:44:30.867Z,100794.33
2017-05-05T04:47:01.657Z,100796.66
2017-05-05T04:49:32.509Z,100801.33
2017-05-05T04:52:03.370Z,100803.48
2017-05-05T04:54:34.249Z,100805.16
2017-05-05T04:57:05.167Z,100805.00
2017-05-05T04:59:36.000Z,100806.97
2017-05-05T05:02:06.891Z,100810.92
2017-05-05T05:04:37.674Z,100810.46
2017-05-05T05:07:08.590Z,100810.79
2017-05-05T05:09:39.417Z,100814.70
2017-05-05T05:12:10.291Z,100817.27
2017-05-05T05:14:41.268Z,100814.34
2017-05-05T05:17:11.721Z,100818.16
2017-05-05T05:19:42.607Z,100817.58
2017-05-05T05:22:13.395Z,100816.58
2017-05-05T05:24:44.290Z,100822.70
2017-05-05T05:27:15.095Z,100825.44
2017-05-05T05:29:46.000Z,100823.87
2017-05-05T05:32:16.844Z,100823.34
2017-05-05T05:34:48.423Z,100821.84
2017-05-05T05:37:19.254Z,100825.73
2017-05-05T05:39:50.314Z,100830.01
2017-05-05T05:42:21.141Z,100835.23
2017-05-05T05:44:52.228Z,100845.09
2017-05-05T05:47:23.129Z,100831.95
2017-05-05T05:49:53.978Z,100836.77
2017-05-05T05:52:24.891Z,100835.94
2017-05-05T05:54:56.782Z,100849.48
2017-05-05T05:57:27.701Z,100845.52
2017-05-05T05:59:58.501Z,100845.95
2017-05-05T06:02:29.381Z,100847.63
2017-05-05T06:05:00.254Z,100846.04
2017-05-05T06:07:31.097Z,100846.85
2017-05-05T06:10:02.019Z,100851.52
2017-05-05T06:12:32.863Z,100849.37
2017-05-05T06:15:03.730Z,100845.28
2017-05-05T06:17:34.540Z,100845.16
2017-05-05T06:20:05.417Z,100837.89
2017-05-05T06:22:36.252Z,100843.23
2017-05-05T06:25:07.194Z,100841.56
2017-05-05T06:27:38.037Z,100846.28
2017-05-05T06:30:08.901Z,100850.34
2017-05-05T06:32:39.686Z,100847.18
2017-05-05T06:35:10.575Z,100847.59
2017-05-05T06:37:41.445Z,100846.94
2017-05-05T06:40:12.305Z,100839.55
2017-05-05T06:42:43.109Z,100845.28
2017-05-05T06:45:14.035Z,100843.53
2017-05-05T06:47:44.869Z,100840.49
2017-05-05T06:50:15.708Z,100845.72
2017-05-05T06:52:46.538Z,100851.75
2017-05-05T06:55:17.387Z,100850.52
2017-05-05T06:57:48.214Z,100854.35
2017-05-05T07:00:19.089Z,100850.84
2017-05-05T07:02:49.979Z,100853.91
2017-05-05T07:05:21.078Z,100851.85
2017-05-05T07:07:52.080Z,100857.51
2017-05-05T07:10:23.048Z,100862.52
2017-05-05T07:12:53.930Z,100865.80
2017-05-05T07:15:24.802Z,100868.25
2017-05-05T07:17:55.770Z,100866.48
2017-05-05T07:20:27.491Z,100862.99
2017-05-05T07:22:58.362Z,100865.37
2017-05-05T07:25:29.491Z,100872.59
2017-05-05T07:28:00.503Z,100868.09
2017-05-05T07:30:31.355Z,100866.34
2017-05-05T07:33:02.159Z,100873.14
2017-05-05T07:35:33.066Z,100874.22
2017-05-05T07:38:03.871Z,100877.58
2017-05-05T07:40:34.744Z,100880.52
2017-05-05T07:43:05.588Z,100887.45
2017-05-05T07:45:36.547Z,100884.16
2017-05-05T07:48:07.390Z,100877.52
2017-05-05T07:50:38.287Z,100875.38
2017-05-05T07:53:09.059Z,100877.94
2017-05-05T07:55:39.934Z,100875.95
2017-05-05T07:58:10.808Z,100878.92
2017-05-05T08:00:41.690Z,100882.64
2017-05-05T08:03:12.539Z,100880.88
2017-05-05T08:05:43.418Z,100891.23
2017-05-05T08:08:14.229Z,100887.95
2017-05-05T08:10:45.106Z,100888.98
2017-05-05T08:13:15.923Z,100892.44
2017-05-05T08:15:46.776Z,100889.72
2017-05-05T08:18:18.826Z,100891.72
2017-05-05T08:20:49.721Z,100889.09
2017-05-05T08:23:20.595Z,100893.63
2017-05-05T08:25:51.562Z,100901.32
2017-05-05T08:28:22.494Z,100896.20
2017-05-05T08:30:53.347Z,100898.83
2017-05-05T08:33:24.145Z,100907.17
2017-05-05T08:35:55.044Z,100906.14
2017-05-05T08:38:25.871Z,100909.14
2017-05-05T08:40:56.773Z,100911.26
2017-05-05T08:43:27.625Z,100910.02
2017-05-05T08:45:58.570Z,100912.80
2017-05-05T08:48:29.387Z,100920.63
2017-05-05T08:51:00.290Z,100917.48
2017-05-05T08:53:31.066Z,100913.39
2017-05-05T08:56:01.980Z,100916.33
2017-05-05T08:58:32.795Z,100910.02
2017-05-05T09:01:03.719Z,100910.39
2017-05-05T09:03:34.475Z,100914.70
2017-05-05T09:06:05.395Z,100926.95
2017-05-05T09:08:36.234Z,100934.80
2017-05-05T09:11:07.203Z,100929.23
2017-05-05T09:13:38.000Z,100930.45
2017-05-05T09:16:08.890Z,100925.55
2017-05-05T09:18:39.719Z,100936.42
2017-05-05T09:21:10.415Z,100933.67
2017-05-05T09:23:41.271Z,100938.45
2017-05-05T09:26:12.197Z,100939.67
2017-05-05T09:28:43.020Z,100936.89
2017-05-05T09:31:13.916Z,100947.76
2017-05-05T09:33:44.806Z,100944.36
2017-05-05T09:36:15.763Z,100945.77
2017-05-05T09:38:46.662Z,100939.58
2017-05-05T09:41:17.492Z,100948.06
2017-05-05T09:43:48.407Z,100940.78
2017-05-05T09:46:19.322Z,100951.38
2017-05-05T09:48:50.345Z,100942.51
2017-05-05T09:51:21.221Z,100932.20
2017-05-05T09:53:52.173Z,100948.70
2017-05-05T09:56:23.337Z,100941.20
2017-05-05T09:58:54.315Z,100948.63
2017-05-05T10:01:25.713Z,100951.76
2017-05-05T10:03:57.387Z,100951.38
2017-05-05T10:06:29.405Z,100949.84
2017-05-05T10:09:00.191Z,100953.95
2017-05-05T10:11:30.927Z,100963.51
2017-05-05T10:14:01.786Z,100959.33
2017-05-05T10:16:32.720Z,100956.81
2017-05-05T10:19:03.551Z,100967.28
2017-05-05T10:21:34.437Z,100970.13
2017-05-05T10:24:05.292Z,100970.16
2017-05-05T10:26:36.188Z,100970.33
2017-05-05T10:29:07.079Z,100971.33
2017-05-05T10:31:37.912Z,100970.89
2017-05-05T10:34:08.846Z,100973.53
2017-05-05T10:36:39.636Z,100973.39
2017-05-05T10:39:10.540Z,100967.36
2017-05-05T10:41:41.379Z,100967.38
2017-05-05T10:44:12.281Z,100967.26
2017-05-05T10:46:42.809Z,100967.47
2017-05-05T10:49:13.747Z,100970.41
2017-05-05T10:51:44.590Z,100967.65
2017-05-05T10:54:15.486Z,100965.59
2017-05-05T10:56:46.314Z,100964.91
2017-05-05T10:59:17.175Z,100968.22
2017-05-05T11:01:48.002Z,100969.42
2017-05-05T11:04:18.998Z,100975.55
2017-05-05T11:06:49.993Z,100977.13
2017-05-05T11:09:20.910Z,100977.91
2017-05-05T11:11:51.890Z,100972.95
2017-05-05T11:14:22.823Z,100975.20
2017-05-05T11:16:53.700Z,100979.42
2017-05-05T11:19:24.546Z,100975.09
2017-05-05T11:21:55.467Z,100981.73
2017-05-05T11:24:26.295Z,100983.33
2017-05-05T11:26:57.158Z,100980.72
2017-05-05T11:29:27.965Z,100986.72
2017-05-05T11:31:58.858Z,100990.05
2017-05-05T11:34:29.676Z,100993.92
2017-05-05T11:37:00.665Z,100992.91
2017-05-05T11:39:31.510Z,101001.82
2017-05-05T11:42:02.455Z,101000.94
2017-05-05T11:44:33.258Z,101000.19
2017-05-05T11:47:04.253Z,101002.27
2017-05-05T11:49:35.122Z,101011.20
2017-05-05T11:52:05.911Z,101008.45
2017-05-05T11:54:36.780Z,101011.48
2017-05-05T11:57:07.646Z,101006.54
2017-05-05T11:59:38.477Z,101006.49
2017-05-05T12:02:09.588Z,101009.70
2017-05-05T12:04:40.419Z,101006.00
2017-05-05T12:07:11.258Z,101009.89
2017-05-05T12:09:42.070Z,101012.75
2017-05-05T12:12:12.897Z,101018.09
2017-05-05T12:14:43.735Z,101017.21
2017-05-05T12:17:14.606Z,101018.59
2017-05-05T12:19:45.522Z,101014.74
2017-05-05T12:22:16.322Z,101016.19
2017-05-05T12:24:46.838Z,101014.70
2017-05-05T12:27:17.628Z,101010.02
2017-05-05T12:29:48.515Z,101007.81
2017-05-05T12:32:19.309Z,101013.74
2017-05-05T12:34:50.206Z,101007.31
2017-05-05T12:37:21.154Z,101013.19
2017-05-05T12:39:52.149Z,100999.68
2017-05-05T12:42:23.034Z,101000.38
2017-05-05T12:44:53.886Z,101003.44
2017-05-05T12:47:24.773Z,101000.31
2017-05-05T12:49:55.615Z,101008.60
2017-05-05T12:52:26.552Z,101001.80
2017-05-05T12:54:57.370Z,101008.19
2017-05-05T12:57:28.244Z,101007.06
2017-05-05T12:59:59.043Z,101011.46
2017-05-05T13:02:29.914Z,101014.13
2017-05-05T13:05:00.703Z,101012.72
2017-05-05T13:07:31.395Z,101009.53
2017-05-05T13:10:02.180Z,101015.14
2017-05-05T13:12:33.070Z,101011.93
2017-05-05T13:15:03.907Z,101006.99
2017-05-05T13:17:34.735Z,101015.51
2017-05-05T13:20:05.563Z,101010.80
2017-05-05T13:22:36.425Z,101019.20
2017-05-05T13:25:07.265Z,101023.52
2017-05-05T13:27:38.119Z,101025.00
2017-05-05T13:30:09.003Z,101030.09
2017-05-05T13:32:40.144Z,101023.84
2017-05-05T13:35:10.999Z,101023.58
2017-05-05T13:37:42.051Z,101021.06
2017-05-05T13:40:12.828Z,101023.20
2017-05-05T13:42:43.686Z,101029.41
2017-05-05T13:45:14.528Z,101029.21
2017-05-05T13:47:45.528Z,101033.03
2017-05-05T13:50:16.337Z,101034.03
2017-05-05T13:52:47.224Z,101030.83
2017-05-05T13:55:18.079Z,101035.25
2017-05-05T13:57:49.545Z,101025.20
2017-05-05T14:00:20.464Z,101028.70
2017-05-05T14:02:51.367Z,101023.44
2017-05-05T14:05:22.180Z,101020.67
2017-05-05T14:07:53.207Z,101019.34
2017-05-05T14:10:23.991Z,101015.89
2017-05-05T14:12:54.869Z,101014.88
2017-05-05T14:15:25.745Z,101014.77
2017-05-05T14:17:56.624Z,101010.78
2017-05-05T14:20:27.270Z,101010.45
2017-05-05T14:22:58.230Z,101011.00
2017-05-05T14:25:29.070Z,101012.77
2017-05-05T14:27:59.942Z,101012.63
2017-05-05T14:30:30.764Z,101007.08
2017-05-05T14:33:01.646Z,101014.17
2017-05-05T14:35:32.503Z,101014.86
2017-05-05T14:38:03.298Z,101014.89
2017-05-05T14:40:34.180Z,101012.55
2017-05-05T14:43:05.104Z,101011.52
2017-05-05T14:45:35.919Z,101015.02
2017-05-05T14:48:06.853Z,101015.48
2017-05-05T14:50:37.713Z,101016.34
2017-05-05T14:53:08.561Z,101016.02
2017-05-05T14:55:39.375Z,101012.55
2017-05-05T14:58:10.229Z,101007.41
2017-05-05T15:00:41.068Z,101011.56
2017-05-05T15:03:11.899Z,101014.27
2017-05-05T15:05:42.798Z,101013.74
2017-05-05T15:08:13.662Z,101009.38
2017-05-05T15:10:44.554Z,100999.84
2017-05-05T15:13:15.428Z,100998.69
2017-05-05T15:15:46.343Z,100995.92
2017-05-05T15:18:17.180Z,100991.62
2017-05-05T15:20:48.080Z,100997.42
2017-05-05T15:23:18.914Z,100995.99
2017-05-05T15:25:49.834Z,100990.25
2017-05-05T15:28:20.690Z,100988.55
2017-05-05T15:30:51.654Z,100993.27
2017-05-05T15:33:22.579Z,100990.64
2017-05-05T15:35:53.539Z,100979.03
2017-05-05T15:38:24.357Z,100996.34
2017-05-05T15:40:55.279Z,101001.94
2017-05-05T15:43:26.098Z,100995.99
2017-05-05T15:45:57.021Z,100997.66
2017-05-05T15:48:27.891Z,101005.31
2017-05-05T15:50:58.767Z,101014.36
2017-05-05T15:53:29.556Z,101015.67
2017-05-05T15:56:00.449Z,101014.23
2017-05-05T15:58:31.289Z,101013.78
2017-05-05T16:01:02.171Z,101013.88
2017-05-05T16:03:32.999Z,101019.27
2017-05-05T16:06:04.023Z,101012.27
2017-05-05T16:08:34.844Z,101014.52
2017-05-05T16:11:05.842Z,101011.91
2017-05-05T16:13:37.576Z,101010.59
2017-05-05T16:16:08.496Z,101008.00
2017-05-05T16:18:39.319Z,101010.92
2017-05-05T16:21:10.213Z,101017.70
2017-05-05T16:23:41.043Z,101000.65
2017-05-05T16:26:11.907Z,100996.27
2017-05-05T16:28:42.748Z,100998.86
2017-05-05T16:31:13.672Z,100995.97
2017-05-05T16:33:44.571Z,100994.68
2017-05-05T16:36:15.445Z,100999.94
2017-05-05T16:38:46.389Z,100993.34
2017-05-05T16:41:17.203Z,100994.57
2017-05-05T16:43:48.088Z,100993.36
2017-05-05T16:46:18.936Z,100994.44
2017-05-05T16:48:49.973Z,100992.12
2017-05-05T16:51:20.771Z,100990.49
2017-05-05T16:53:51.623Z,101000.20
2017-05-05T16:56:22.478Z,100993.86
2017-05-05T16:58:53.388Z,100989.61
2017-05-05T17:01:24.450Z,100985.55
2017-05-05T17:03:55.367Z,100985.77
2017-05-05T17:06:26.257Z,100982.27
2017-05-05T17:08:57.102Z,100982.45
2017-05-05T17:11:27.982Z,100977.72
2017-05-05T17:13:58.819Z,100979.31
2017-05-05T17:16:29.767Z,100979.55
2017-05-05T17:19:00.616Z,100983.48
2017-05-05T17:21:31.570Z,100983.44
2017-05-05T17:24:02.393Z,100987.80
2017-05-05T17:26:33.305Z,100982.55
2017-05-05T17:29:04.173Z,100980.04
2017-05-05T17:31:35.093Z,100983.05
2017-05-05T17:34:05.930Z,100980.72
2017-05-05T17:36:36.824Z,100987.17
2017-05-05T17:39:07.647Z,100983.80
2017-05-05T17:41:38.725Z,100999.82
2017-05-05T17:44:09.593Z,101000.20
2017-05-05T17:46:40.523Z,101005.78
2017-05-05T17:49:11.508Z,100999.91
2017-05-05T17:51:42.406Z,100999.87
2017-05-05T17:54:13.190Z,101004.45
2017-05-05T17:56:44.063Z,101006.69
2017-05-05T17:59:14.941Z,100999.14
2017-05-05T18:01:45.728Z,101000.45
2017-05-05T18:04:16.605Z,101000.92
2017-05-05T18:06:47.465Z,101003.63
2017-05-05T18:09:18.346Z,100998.68
2017-05-05T18:11:49.168Z,101001.51
2017-05-05T18:14:20.042Z,101000.86
2017-05-05T18:16:50.981Z,101001.90
2017-05-05T18:19:21.869Z,101001.99
2017-05-05T18:21:52.782Z,101000.84
2017-05-05T18:24:23.838Z,101003.19
2017-05-05T18:26:54.620Z,101003.28
2017-05-05T18:29:25.494Z,101008.83
2017-05-05T18:31:56.399Z,101011.91
2017-05-05T18:34:27.236Z,101012.36
2017-05-05T18:36:58.119Z,101011.52
2017-05-05T18:39:28.913Z,101025.05
2017-05-05T18:41:59.820Z,101027.20
2017-05-05T18:44:30.737Z,101034.88
2017-05-05T18:47:01.612Z,101032.52
2017-05-05T18:49:32.515Z,101028.28
2017-05-05T18:52:03.410Z,101029.91
2017-05-05T18:54:34.219Z,101035.28
2017-05-05T18:57:05.184Z,101032.70
2017-05-05T18:59:36.018Z,101029.27
2017-05-05T19:02:06.869Z,101039.34
2017-05-05T19:04:37.727Z,101044.66
2017-05-05T19:07:08.630Z,101042.87
2017-05-05T19:09:39.483Z,101047.80
2017-05-05T19:12:10.354Z,101046.98
2017-05-05T19:14:41.211Z,101051.70
2017-05-05T19:17:12.097Z,101043.95
2017-05-05T19:19:42.891Z,101047.67
2017-05-05T19:22:13.749Z,101043.15
2017-05-05T19:24:44.540Z,101042.97
2017-05-05T19:27:15.400Z,101040.77
2017-05-05T19:29:46.250Z,101047.02
2017-05-05T19:32:17.165Z,101050.37
2017-05-05T19:34:47.955Z,101045.91
2017-05-05T19:37:18.794Z,101043.58
2017-05-05T19:39:49.621Z,101040.95
2017-05-05T19:42:22.213Z,101039.70
2017-05-05T19:44:54.126Z,101044.58
2017-05-05T19:47:27.262Z,101049.70
2017-05-05T19:50:02.150Z,101045.19
2017-05-05T19:52:36.688Z,101044.37
2017-05-05T19:55:08.174Z,101039.89
2017-05-05T19:57:41.511Z,101032.33
2017-05-05T20:00:12.433Z,101031.55
2017-05-05T20:02:43.332Z,101036.75
2017-05-05T20:05:14.169Z,101037.44
2017-05-05T20:07:46.412Z,101040.37
2017-05-05T20:10:21.509Z,101036.92
2017-05-05T20:13:01.148Z,101034.44
2017-05-05T20:15:33.210Z,101034.59
2017-05-05T20:18:06.507Z,101024.00
2017-05-05T20:20:37.933Z,101021.88
2017-05-05T20:23:08.866Z,101016.02
2017-05-05T20:25:41.502Z,101020.16
2017-05-05T20:28:15.002Z,101018.22
2017-05-05T20:30:46.659Z,101018.48
2017-05-05T20:33:20.376Z,101015.08
2017-05-05T20:35:52.884Z,101012.84
2017-05-05T20:38:25.995Z,101011.29
2017-05-05T20:40:58.127Z,101012.53
2017-05-05T20:43:31.222Z,101005.64
2017-05-05T20:46:02.438Z,101008.84
2017-05-05T20:48:33.290Z,100997.02
2017-05-05T20:51:06.621Z,101003.66
2017-05-05T20:53:38.463Z,100996.75
2017-05-05T20:56:09.284Z,100995.01
2017-05-05T20:58:40.154Z,100998.60
2017-05-05T21:01:11.036Z,100992.88
2017-05-05T21:03:41.882Z,100999.23
2017-05-05T21:06:12.839Z,100990.73
2017-05-05T21:08:43.741Z,100996.82
2017-05-05T21:11:14.647Z,100990.83
2017-05-05T21:13:45.508Z,100993.56
2017-05-05T21:16:16.340Z,100988.53
2017-05-05T21:18:48.142Z,100992.36
2017-05-05T21:21:19.043Z,100990.30
2017-05-05T21:23:49.835Z,100995.94
2017-05-05T21:26:20.690Z,100989.67
2017-05-05T21:28:51.533Z,100989.74
2017-05-05T21:31:22.450Z,100997.08
2017-05-05T21:33:53.316Z,100986.25
2017-05-05T21:36:24.279Z,100983.88
2017-05-05T21:38:55.126Z,100987.03
2017-05-05T21:41:26.141Z,100979.10
2017-05-05T21:43:56.967Z,100978.97
2017-05-05T21:46:27.854Z,100976.78
2017-05-05T21:48:58.763Z,100967.30
2017-05-05T21:51:29.771Z,100968.27
2017-05-05T21:54:00.606Z,100968.61
2017-05-05T21:56:31.484Z,100969.14
2017-05-05T21:59:02.303Z,100968.91
2017-05-05T22:01:33.292Z,100976.37
2017-05-05T22:04:04.212Z,100978.59
2017-05-05T22:06:35.111Z,100968.59
2017-05-05T22:09:05.956Z,100965.52
2017-05-05T22:11:36.807Z,100973.57
2017-05-05T22:14:07.631Z,100958.36
2017-05-05T22:16:38.555Z,100964.01
2017-05-05T22:19:09.337Z,100959.37
2017-05-05T22:21:40.529Z,100953.50
2017-05-05T22:24:11.313Z,100954.47
2017-05-05T22:26:42.199Z,100953.19
2017-05-05T22:29:13.022Z,100955.34
2017-05-05T22:31:43.874Z,100952.86
2017-05-05T22:34:14.692Z,100951.87
2017-05-05T22:36:45.558Z,100947.81
2017-05-05T22:39:17.031Z,100949.48
2017-05-05T22:41:47.962Z,100937.01
2017-05-05T22:44:18.788Z,100937.77
2017-05-05T22:46:49.667Z,100940.77
2017-05-05T22:49:20.477Z,100942.19
2017-05-05T22:51:51.527Z,100937.80
2017-05-05T22:54:22.311Z,100942.50
2017-05-05T22:56:53.251Z,100948.48
2017-05-05T22:59:24.139Z,100942.29
2017-05-05T23:01:55.000Z,100940.22
2017-05-05T23:04:25.593Z,100942.02
2017-05-05T23:06:56.506Z,100943.82
2017-05-05T23:09:27.344Z,100938.36
2017-05-05T23:11:58.215Z,100938.75
2017-05-05T23:14:29.030Z,100936.65
2017-05-05T23:16:59.947Z,100932.02
2017-05-05T23:19:30.751Z,100936.38
2017-05-05T23:22:01.623Z,100938.09
2017-05-05T23:24:32.436Z,100930.33
2017-05-05T23:27:05.096Z,100936.03
2017-05-05T23:29:35.934Z,100940.38
2017-05-05T23:32:06.759Z,100929.06
2017-05-05T23:34:37.698Z,100929.13
2017-05-05T23:37:09.352Z,100920.88
2017-05-05T23:39:40.232Z,100920.95
2017-05-05T23:42:11.022Z,100924.47
2017-05-05T23:44:41.911Z,100925.83
2017-05-05T23:47:12.775Z,100923.00
2017-05-05T23:49:44.500Z,100914.34
2017-05-05T23:52:15.401Z,100925.30
2017-05-05T23:54:46.290Z,100918.00
2017-05-05T23:57:17.131Z,100920.06
2017-05-05T23:59:47.986Z,100922.27
